• Join FlightAware (Why Join?)
  • Login
  • US Flag 
09:13PM EDT


 

Airport Tracker/Info


-or-


 

Live Flight TrackerFlight Track Log ✈ RPA3392 ✈ 07-May-2013 ✈ KDCA - KALB

Flight Track Log - Related Links

Times and Time Zones

All times are in EDT time to prevent confusion due to time zone crossing. See the RPA3392 flight status page for this flight to view local times or setup timezone preferences in your user account.

Time Position Orientation Groundspeed Altitude Reporting Facility
EDT Latitude Longitude Course Direction KTS MPH feet Rate Location/Type
10:37PM 38.8833 -77.0667 322° Northwest 175 201 1,700  Level Potomac TRACON
10:38PM 38.9333 -77.1167 322° Northwest 272 313 3,700 2,820 Climbing Potomac TRACON
10:39PM 39.0000 -77.1833 322° Northwest 313 360 7,400 2,640 Climbing Potomac TRACON
10:40PM 39.0500 -77.1167 46° Northeast 277 319 9,000 1,320 Climbing Potomac TRACON
10:42PM 38.9886 -76.9964 123° Southeast 278 320 11,100 1,800 Climbing Washington Center
10:43PM 38.9897 -76.9028 89° East 251 289 13,800 2,940 Climbing Washington Center
10:44PM 39.0156 -76.8019 72° East 263 303 16,900 2,340 Climbing Washington Center
10:45PM 39.0417 -76.6953 72° East 285 328 18,700 1,020 Climbing Washington Center
10:46PM 39.0678 -76.5728 75° East 318 366 19,000 1,080 Climbing Washington Center
10:47PM 39.0958 -76.4556 73° East 340 391 20,900 1,980 Climbing Washington Center
10:48PM 39.0964 -76.3458 90° East 326 375 23,000 1,020 Climbing Washington Center
10:49PM 39.1014 -76.2389 87° East 313 360 23,000  Level Washington Center
10:50PM 39.1417 -76.0947 70° East 366 421 23,000  Level Washington Center
10:51PM 39.1711 -75.9636 74° East 366 421 23,000 -60 Level Washington Center
10:52PM 39.2217 -75.8433 61° Northeast 371 427 22,900  Descending Washington Center
10:53PM 39.2967 -75.7472 45° Northeast 370 426 23,000 240 Climbing Washington Center
10:54PM 39.3697 -75.6533 45° Northeast 370 426 23,400 960 Climbing Washington Center
10:55PM 39.4469 -75.5539 45° Northeast 365 420 25,000 480 Climbing Washington Center
10:57PM 39.6014 -75.3514 45° Northeast 378 435 25,000  Level New York Center
10:58PM 39.6761 -75.2511 46° Northeast 378 435 25,000  Level New York Center
10:59PM 39.7556 -75.1344 48° Northeast 389 448 25,000  Level New York Center
11:00PM 39.8303 -75.0283 47° Northeast 389 448 25,000  Level New York Center
11:01PM 39.9031 -74.9219 48° Northeast 389 448 25,000  Level New York Center
11:02PM 39.9597 -74.8439 47° Northeast 389 448 25,000  Level New York Center
11:03PM 40.0472 -74.7269 46° Northeast 389 448 25,000  Level New York Center
11:04PM 40.1194 -74.6200 49° Northeast 389 448 25,000  Level New York Center
11:05PM 40.1917 -74.5153 48° Northeast 389 448 25,000  Level New York Center
11:06PM 40.2869 -74.4061 41° Northeast 394 453 25,000  Level New York Center
11:07PM 40.3750 -74.3128 39° Northeast 394 453 25,000  Level New York Center
11:09PM 40.5625 -74.1064 40° Northeast 397 457 25,000  Level Boston Center
11:10PM 40.6428 -74.0264 37° Northeast 397 457 25,000 -240 Level Boston Center
11:11PM 40.7275 -73.9328 40° Northeast 397 457 24,600 -540 Descending Boston Center
11:12PM 40.8119 -73.8386 40° Northeast 397 457 24,000 -300 Descending Boston Center
11:13PM 40.8944 -73.7389 42° Northeast 397 457 24,000 -120 Level Boston Center
11:14PM 40.9956 -73.6444 35° Northeast 397 457 23,800 -540 Descending Boston Center
11:15PM 41.0956 -73.6436 360° North 376 433 23,000 -720 Descending Boston Center
11:16PM 41.2081 -73.6542 356° North 387 445 22,400 -1,020 Descending Boston Center
11:17PM 41.3206 -73.6644 356° North 387 445 21,000 -1,200 Descending Boston Center
11:18PM 41.4267 -73.6747 356° North 387 445 20,000 -540 Descending Boston Center
11:19PM 41.5411 -73.6881 355° North 387 445 20,000  Level Boston Center
11:20PM 41.6494 -73.6986 356° North 381 438 20,000 -720 Level Boston Center
11:21PM 41.7658 -73.7092 356° North 387 445 18,500 -1,440 Descending Boston Center
11:22PM 41.8139 -73.7131 357° North 377 434 17,800 -1,920 Descending Boston Center
11:22PM 41.8783 -73.7200 355° North 375 432 16,600 -2,040 Descending Boston Center
11:22PM 41.9056 -73.7206 359° North 364 419 16,000 -2,040 Descending Boston Center
11:23PM 41.9658 -73.7300 353° North 362 417 14,600 -2,100 Descending Boston Center
11:23PM 42.0056 -73.7281 North 354 407 13,900 -1,620 Descending Boston Center
11:24PM 42.0533 -73.7375 352° North 357 411 13,000 -1,800 Descending Boston Center
11:24PM 42.0992 -73.7411 357° North 341 392 12,100 -2,040 Descending Boston Center
11:25PM 42.1658 -73.7397 North 341 392 11,000 -1,140 Descending Boston Center
11:25PM 42.1928 -73.7514 342° North 334 384 11,000 -540 Level Boston Center
11:26PM 42.2450 -73.7469 North 324 373 10,500 -1,440 Descending Boston Center
11:27PM 42.3367 -73.7433 North 306 352 8,600 -1,800 Descending Boston Center
11:28PM 42.4097 -73.7419 North 293 337 6,900 -1,980 Descending Boston Center
11:29PM 42.4972 -73.7383 North 286 329 4,700 -1,800 Descending Boston Center
11:30PM 42.5661 -73.7311 North 286 329 3,400 -1,440 Descending Boston Center
11:30PM 42.5911 -73.7289 North 282 325 2,900 -1,200 Descending Boston Center
11:31PM 42.6517 -73.7244 North 281 323 2,200 -900 Descending Boston Center
11:31PM 42.6661 -73.7219 North 263 303 2,000 -240 Descending Boston Center
11:32PM 42.7081 -73.7144 North 252 290 2,000  Level Boston Center
11:32PM 42.7372 -73.7150 359° North 230 265 2,000  Level Boston Center
11:33PM 42.7808 -73.7103 North 229 264 2,000  Level Boston Center
11:33PM 42.7997 -73.7133 353° North 212 244 2,000  Level Boston Center
11:34PM 42.8331 -73.7142 359° North 214 246 2,000 -120 Level Boston Center
11:34PM 42.8283 -73.7564 261° West 162 186 1,900 -480 Descending Boston Center
11:35PM 42.8194 -73.8044 256° West 139 160 1,400 -540 Descending Boston Center
11:36PM 42.7861 -73.8094 186° South 105 121 900 -540 Descending Boston Center
11:38PM 42.7491 -73.8020 180° South  Level Estimated
11:45PM 42.7491 -73.8020 180° South  Level Estimated
11:46PM 42.7491 -73.8020 180° South  Level Estimated